sensor_id;sensor_type;location;lat;lon;timestamp;P1;durP1;ratioP1;P2;durP2;ratioP2
42988;SDS011;28622;43.716;20.668;2022-10-30T00:02:05;21.30;;;10.80;;
42988;SDS011;28622;43.716;20.668;2022-10-30T00:04:31;29.73;;;13.93;;
42988;SDS011;28622;43.716;20.668;2022-10-30T00:06:57;28.17;;;13.77;;
42988;SDS011;28622;43.716;20.668;2022-10-30T00:09:22;25.88;;;12.88;;
42988;SDS011;28622;43.716;20.668;2022-10-30T00:11:48;22.20;;;11.82;;
42988;SDS011;28622;43.716;20.668;2022-10-30T00:14:14;30.73;;;13.00;;
42988;SDS011;28622;43.716;20.668;2022-10-30T00:16:39;32.13;;;14.73;;
42988;SDS011;28622;43.716;20.668;2022-10-30T00:19:06;44.72;;;17.95;;
42988;SDS011;28622;43.716;20.668;2022-10-30T00:21:31;37.25;;;15.85;;
42988;SDS011;28622;43.716;20.668;2022-10-30T00:23:57;45.95;;;19.23;;
42988;SDS011;28622;43.716;20.668;2022-10-30T00:26:23;30.17;;;14.75;;
42988;SDS011;28622;43.716;20.668;2022-10-30T00:28:53;35.53;;;15.05;;
42988;SDS011;28622;43.716;20.668;2022-10-30T00:31:20;42.38;;;14.90;;
42988;SDS011;28622;43.716;20.668;2022-10-30T00:33:52;32.17;;;12.75;;
42988;SDS011;28622;43.716;20.668;2022-10-30T00:36:19;27.38;;;11.90;;
42988;SDS011;28622;43.716;20.668;2022-10-30T00:38:50;34.63;;;13.35;;
42988;SDS011;28622;43.716;20.668;2022-10-30T00:41:22;25.63;;;12.57;;
42988;SDS011;28622;43.716;20.668;2022-10-30T00:43:49;31.95;;;13.02;;
42988;SDS011;28622;43.716;20.668;2022-10-30T00:48:51;23.05;;;10.82;;
42988;SDS011;28622;43.716;20.668;2022-10-30T00:51:41;21.45;;;10.43;;
42988;SDS011;28622;43.716;20.668;2022-10-30T00:54:11;20.35;;;10.38;;
42988;SDS011;28622;43.716;20.668;2022-10-30T00:56:40;17.90;;;9.73;;
42988;SDS011;28622;43.716;20.668;2022-10-30T00:59:07;19.98;;;10.27;;
42988;SDS011;28622;43.716;20.668;2022-10-30T01:01:41;24.13;;;10.07;;
42988;SDS011;28622;43.716;20.668;2022-10-30T01:04:09;15.07;;;8.98;;
42988;SDS011;28622;43.716;20.668;2022-10-30T01:06:37;16.15;;;8.85;;
42988;SDS011;28622;43.716;20.668;2022-10-30T01:09:05;16.42;;;8.40;;
42988;SDS011;28622;43.716;20.668;2022-10-30T01:11:31;16.52;;;8.35;;
42988;SDS011;28622;43.716;20.668;2022-10-30T01:14:00;15.65;;;7.45;;
42988;SDS011;28622;43.716;20.668;2022-10-30T01:21:54;9.45;;;6.18;;
42988;SDS011;28622;43.716;20.668;2022-10-30T01:24:51;13.55;;;6.40;;
42988;SDS011;28622;43.716;20.668;2022-10-30T01:27:56;10.60;;;5.55;;
42988;SDS011;28622;43.716;20.668;2022-10-30T01:35:57;9.50;;;5.88;;
42988;SDS011;28622;43.716;20.668;2022-10-30T01:41:45;11.85;;;7.18;;
42988;SDS011;28622;43.716;20.668;2022-10-30T01:44:17;14.25;;;6.75;;
42988;SDS011;28622;43.716;20.668;2022-10-30T01:53:06;14.70;;;6.78;;
42988;SDS011;28622;43.716;20.668;2022-10-30T01:57:57;10.43;;;5.90;;
42988;SDS011;28622;43.716;20.668;2022-10-30T02:00:36;8.35;;;5.18;;
42988;SDS011;28622;43.716;20.668;2022-10-30T02:03:05;15.05;;;6.60;;
42988;SDS011;28622;43.716;20.668;2022-10-30T02:08:06;16.67;;;6.13;;
42988;SDS011;28622;43.716;20.668;2022-10-30T02:10:33;10.20;;;5.90;;
42988;SDS011;28622;43.716;20.668;2022-10-30T02:13:01;14.82;;;6.38;;
42988;SDS011;28622;43.716;20.668;2022-10-30T02:15:27;9.95;;;5.78;;
42988;SDS011;28622;43.716;20.668;2022-10-30T02:17:53;9.32;;;5.32;;
42988;SDS011;28622;43.716;20.668;2022-10-30T02:20:20;9.60;;;5.88;;
42988;SDS011;28622;43.716;20.668;2022-10-30T02:22:46;9.52;;;4.82;;
42988;SDS011;28622;43.716;20.668;2022-10-30T02:25:13;11.35;;;5.22;;
42988;SDS011;28622;43.716;20.668;2022-10-30T02:27:39;12.32;;;5.00;;
42988;SDS011;28622;43.716;20.668;2022-10-30T02:30:05;14.32;;;5.63;;
42988;SDS011;28622;43.716;20.668;2022-10-30T02:32:32;11.63;;;5.97;;
42988;SDS011;28622;43.716;20.668;2022-10-30T02:34:58;14.68;;;8.80;;
42988;SDS011;28622;43.716;20.668;2022-10-30T02:37:23;24.13;;;9.80;;
42988;SDS011;28622;43.716;20.668;2022-10-30T02:39:49;21.42;;;9.20;;
42988;SDS011;28622;43.716;20.668;2022-10-30T02:42:15;14.60;;;7.15;;
42988;SDS011;28622;43.716;20.668;2022-10-30T02:44:41;11.35;;;6.30;;
42988;SDS011;28622;43.716;20.668;2022-10-30T02:47:07;16.98;;;6.05;;
42988;SDS011;28622;43.716;20.668;2022-10-30T02:49:33;16.83;;;7.53;;
42988;SDS011;28622;43.716;20.668;2022-10-30T02:51:59;13.45;;;7.53;;
42988;SDS011;28622;43.716;20.668;2022-10-30T02:54:24;17.23;;;8.38;;
42988;SDS011;28622;43.716;20.668;2022-10-30T02:56:50;19.10;;;7.63;;
42988;SDS011;28622;43.716;20.668;2022-10-30T02:59:16;19.50;;;6.88;;
42988;SDS011;28622;43.716;20.668;2022-10-30T03:01:42;14.35;;;6.97;;
42988;SDS011;28622;43.716;20.668;2022-10-30T03:04:07;15.15;;;5.90;;
42988;SDS011;28622;43.716;20.668;2022-10-30T03:06:33;10.50;;;6.22;;
42988;SDS011;28622;43.716;20.668;2022-10-30T03:08:59;14.18;;;5.82;;
42988;SDS011;28622;43.716;20.668;2022-10-30T03:11:25;9.38;;;4.80;;
42988;SDS011;28622;43.716;20.668;2022-10-30T03:13:51;9.50;;;5.05;;
42988;SDS011;28622;43.716;20.668;2022-10-30T03:16:21;11.23;;;5.22;;
42988;SDS011;28622;43.716;20.668;2022-10-30T03:18:48;9.80;;;4.95;;
42988;SDS011;28622;43.716;20.668;2022-10-30T03:21:16;12.30;;;5.32;;
42988;SDS011;28622;43.716;20.668;2022-10-30T03:23:44;8.15;;;4.80;;
42988;SDS011;28622;43.716;20.668;2022-10-30T03:26:10;9.93;;;5.22;;
42988;SDS011;28622;43.716;20.668;2022-10-30T03:28:36;9.50;;;5.32;;
42988;SDS011;28622;43.716;20.668;2022-10-30T03:31:10;8.50;;;5.28;;
42988;SDS011;28622;43.716;20.668;2022-10-30T03:33:37;11.55;;;5.88;;
42988;SDS011;28622;43.716;20.668;2022-10-30T03:36:04;12.35;;;6.38;;
42988;SDS011;28622;43.716;20.668;2022-10-30T03:38:31;10.55;;;5.00;;
42988;SDS011;28622;43.716;20.668;2022-10-30T03:40:57;12.18;;;6.10;;
42988;SDS011;28622;43.716;20.668;2022-10-30T03:43:22;12.98;;;5.95;;
42988;SDS011;28622;43.716;20.668;2022-10-30T03:45:49;15.88;;;6.15;;
42988;SDS011;28622;43.716;20.668;2022-10-30T03:48:17;10.23;;;5.55;;
42988;SDS011;28622;43.716;20.668;2022-10-30T03:50:44;10.73;;;6.15;;
42988;SDS011;28622;43.716;20.668;2022-10-30T03:53:10;9.82;;;5.72;;
42988;SDS011;28622;43.716;20.668;2022-10-30T03:55:37;13.73;;;5.97;;
42988;SDS011;28622;43.716;20.668;2022-10-30T03:58:03;12.48;;;5.90;;
42988;SDS011;28622;43.716;20.668;2022-10-30T04:00:30;12.25;;;5.72;;
42988;SDS011;28622;43.716;20.668;2022-10-30T04:02:56;11.10;;;5.55;;
42988;SDS011;28622;43.716;20.668;2022-10-30T04:05:22;16.95;;;6.32;;
42988;SDS011;28622;43.716;20.668;2022-10-30T04:07:54;14.82;;;6.15;;
42988;SDS011;28622;43.716;20.668;2022-10-30T04:10:24;9.20;;;5.47;;
42988;SDS011;28622;43.716;20.668;2022-10-30T04:12:51;12.93;;;5.50;;
42988;SDS011;28622;43.716;20.668;2022-10-30T04:15:18;10.77;;;5.78;;
42988;SDS011;28622;43.716;20.668;2022-10-30T04:17:48;12.73;;;5.30;;
42988;SDS011;28622;43.716;20.668;2022-10-30T04:20:15;10.05;;;5.95;;
42988;SDS011;28622;43.716;20.668;2022-10-30T04:22:41;14.63;;;6.15;;
42988;SDS011;28622;43.716;20.668;2022-10-30T04:25:07;11.48;;;5.35;;
42988;SDS011;28622;43.716;20.668;2022-10-30T04:27:40;10.70;;;5.70;;
42988;SDS011;28622;43.716;20.668;2022-10-30T04:30:07;11.68;;;5.43;;
42988;SDS011;28622;43.716;20.668;2022-10-30T04:32:34;10.10;;;5.40;;
42988;SDS011;28622;43.716;20.668;2022-10-30T04:35:00;12.40;;;5.68;;
42988;SDS011;28622;43.716;20.668;2022-10-30T04:37:27;10.98;;;5.28;;
42988;SDS011;28622;43.716;20.668;2022-10-30T04:39:53;9.80;;;5.18;;
42988;SDS011;28622;43.716;20.668;2022-10-30T04:42:19;10.07;;;5.75;;
42988;SDS011;28622;43.716;20.668;2022-10-30T04:44:45;9.82;;;5.10;;
42988;SDS011;28622;43.716;20.668;2022-10-30T04:47:10;10.48;;;5.38;;
42988;SDS011;28622;43.716;20.668;2022-10-30T04:49:36;10.88;;;5.53;;
42988;SDS011;28622;43.716;20.668;2022-10-30T04:52:02;12.95;;;5.28;;
42988;SDS011;28622;43.716;20.668;2022-10-30T04:54:27;10.95;;;4.78;;
42988;SDS011;28622;43.716;20.668;2022-10-30T04:56:53;8.52;;;5.20;;
42988;SDS011;28622;43.716;20.668;2022-10-30T04:59:19;8.63;;;5.55;;
42988;SDS011;28622;43.716;20.668;2022-10-30T05:01:45;8.68;;;4.93;;
42988;SDS011;28622;43.716;20.668;2022-10-30T05:04:10;11.70;;;5.50;;
42988;SDS011;28622;43.716;20.668;2022-10-30T05:06:36;9.77;;;5.90;;
42988;SDS011;28622;43.716;20.668;2022-10-30T05:09:02;10.82;;;6.15;;
42988;SDS011;28622;43.716;20.668;2022-10-30T05:11:28;12.35;;;5.95;;
42988;SDS011;28622;43.716;20.668;2022-10-30T05:13:54;11.75;;;6.07;;
42988;SDS011;28622;43.716;20.668;2022-10-30T05:16:20;10.32;;;5.53;;
42988;SDS011;28622;43.716;20.668;2022-10-30T05:18:46;10.77;;;5.60;;
42988;SDS011;28622;43.716;20.668;2022-10-30T05:21:11;8.40;;;4.97;;
42988;SDS011;28622;43.716;20.668;2022-10-30T05:23:37;10.55;;;5.10;;
42988;SDS011;28622;43.716;20.668;2022-10-30T05:26:03;11.07;;;4.82;;
42988;SDS011;28622;43.716;20.668;2022-10-30T05:28:29;6.75;;;4.28;;
42988;SDS011;28622;43.716;20.668;2022-10-30T05:30:55;9.10;;;5.57;;
42988;SDS011;28622;43.716;20.668;2022-10-30T05:33:20;14.60;;;6.30;;
42988;SDS011;28622;43.716;20.668;2022-10-30T05:35:46;11.75;;;6.25;;
42988;SDS011;28622;43.716;20.668;2022-10-30T05:38:12;12.85;;;7.15;;
42988;SDS011;28622;43.716;20.668;2022-10-30T05:40:38;10.82;;;6.47;;
42988;SDS011;28622;43.716;20.668;2022-10-30T05:43:04;13.90;;;6.65;;
42988;SDS011;28622;43.716;20.668;2022-10-30T05:45:30;13.30;;;6.95;;
42988;SDS011;28622;43.716;20.668;2022-10-30T05:47:57;12.77;;;7.50;;
42988;SDS011;28622;43.716;20.668;2022-10-30T05:50:24;12.45;;;6.63;;
42988;SDS011;28622;43.716;20.668;2022-10-30T05:53:24;9.15;;;5.63;;
42988;SDS011;28622;43.716;20.668;2022-10-30T05:55:42;9.80;;;5.40;;
42988;SDS011;28622;43.716;20.668;2022-10-30T05:58:08;8.98;;;4.95;;
42988;SDS011;28622;43.716;20.668;2022-10-30T06:00:34;7.03;;;4.55;;
42988;SDS011;28622;43.716;20.668;2022-10-30T06:03:01;9.80;;;5.68;;
42988;SDS011;28622;43.716;20.668;2022-10-30T06:05:29;12.07;;;7.60;;
42988;SDS011;28622;43.716;20.668;2022-10-30T06:07:55;14.60;;;7.18;;
42988;SDS011;28622;43.716;20.668;2022-10-30T06:10:24;13.75;;;7.32;;
42988;SDS011;28622;43.716;20.668;2022-10-30T06:12:54;17.00;;;6.35;;
42988;SDS011;28622;43.716;20.668;2022-10-30T06:15:30;14.45;;;7.07;;
42988;SDS011;28622;43.716;20.668;2022-10-30T06:17:57;16.17;;;5.78;;
42988;SDS011;28622;43.716;20.668;2022-10-30T06:20:24;14.07;;;6.25;;
42988;SDS011;28622;43.716;20.668;2022-10-30T06:22:55;9.68;;;5.40;;
42988;SDS011;28622;43.716;20.668;2022-10-30T06:25:26;6.53;;;3.90;;
42988;SDS011;28622;43.716;20.668;2022-10-30T06:27:52;8.52;;;4.60;;
42988;SDS011;28622;43.716;20.668;2022-10-30T06:30:18;4.72;;;3.10;;
42988;SDS011;28622;43.716;20.668;2022-10-30T06:32:45;6.43;;;3.80;;
42988;SDS011;28622;43.716;20.668;2022-10-30T06:35:11;6.65;;;4.20;;
42988;SDS011;28622;43.716;20.668;2022-10-30T06:37:39;7.35;;;4.20;;
42988;SDS011;28622;43.716;20.668;2022-10-30T06:40:10;4.07;;;3.00;;
42988;SDS011;28622;43.716;20.668;2022-10-30T06:42:43;5.22;;;3.40;;
42988;SDS011;28622;43.716;20.668;2022-10-30T06:45:11;9.00;;;4.68;;
42988;SDS011;28622;43.716;20.668;2022-10-30T06:47:37;12.35;;;5.78;;
42988;SDS011;28622;43.716;20.668;2022-10-30T06:50:04;6.72;;;4.70;;
42988;SDS011;28622;43.716;20.668;2022-10-30T06:52:30;11.60;;;6.03;;
42988;SDS011;28622;43.716;20.668;2022-10-30T06:54:56;28.85;;;12.75;;
42988;SDS011;28622;43.716;20.668;2022-10-30T06:57:22;11.77;;;5.47;;
42988;SDS011;28622;43.716;20.668;2022-10-30T06:59:48;8.95;;;4.57;;
42988;SDS011;28622;43.716;20.668;2022-10-30T07:02:14;7.78;;;3.97;;
42988;SDS011;28622;43.716;20.668;2022-10-30T07:04:40;5.60;;;3.33;;
42988;SDS011;28622;43.716;20.668;2022-10-30T07:07:05;6.38;;;4.10;;
42988;SDS011;28622;43.716;20.668;2022-10-30T07:09:31;6.15;;;3.72;;
42988;SDS011;28622;43.716;20.668;2022-10-30T07:11:57;7.90;;;3.90;;
42988;SDS011;28622;43.716;20.668;2022-10-30T07:14:23;7.40;;;4.18;;
42988;SDS011;28622;43.716;20.668;2022-10-30T07:16:49;7.47;;;4.53;;
42988;SDS011;28622;43.716;20.668;2022-10-30T07:19:14;6.03;;;3.83;;
42988;SDS011;28622;43.716;20.668;2022-10-30T07:21:40;6.55;;;4.05;;
42988;SDS011;28622;43.716;20.668;2022-10-30T07:24:06;7.13;;;4.25;;
42988;SDS011;28622;43.716;20.668;2022-10-30T07:26:32;9.90;;;5.35;;
42988;SDS011;28622;43.716;20.668;2022-10-30T07:29:02;11.45;;;5.47;;
42988;SDS011;28622;43.716;20.668;2022-10-30T07:31:28;7.72;;;4.60;;
42988;SDS011;28622;43.716;20.668;2022-10-30T07:33:54;7.43;;;4.60;;
42988;SDS011;28622;43.716;20.668;2022-10-30T07:36:20;8.48;;;5.10;;
42988;SDS011;28622;43.716;20.668;2022-10-30T07:38:49;8.20;;;4.80;;
42988;SDS011;28622;43.716;20.668;2022-10-30T07:41:16;14.00;;;5.38;;
42988;SDS011;28622;43.716;20.668;2022-10-30T07:43:42;8.77;;;4.53;;
42988;SDS011;28622;43.716;20.668;2022-10-30T07:46:08;9.45;;;4.85;;
42988;SDS011;28622;43.716;20.668;2022-10-30T07:48:34;11.20;;;5.15;;
42988;SDS011;28622;43.716;20.668;2022-10-30T07:51:00;8.15;;;4.57;;
42988;SDS011;28622;43.716;20.668;2022-10-30T07:53:26;7.57;;;4.53;;
42988;SDS011;28622;43.716;20.668;2022-10-30T07:55:51;10.45;;;5.20;;
42988;SDS011;28622;43.716;20.668;2022-10-30T07:58:17;10.07;;;4.72;;
42988;SDS011;28622;43.716;20.668;2022-10-30T08:00:43;7.45;;;3.88;;
42988;SDS011;28622;43.716;20.668;2022-10-30T08:03:09;6.82;;;3.78;;
42988;SDS011;28622;43.716;20.668;2022-10-30T08:05:36;15.45;;;4.07;;
42988;SDS011;28622;43.716;20.668;2022-10-30T08:08:02;9.18;;;4.30;;
42988;SDS011;28622;43.716;20.668;2022-10-30T08:10:28;8.48;;;4.65;;
42988;SDS011;28622;43.716;20.668;2022-10-30T08:12:53;6.25;;;4.05;;
42988;SDS011;28622;43.716;20.668;2022-10-30T08:15:19;7.85;;;3.83;;
42988;SDS011;28622;43.716;20.668;2022-10-30T08:17:46;10.50;;;6.05;;
42988;SDS011;28622;43.716;20.668;2022-10-30T08:20:14;10.02;;;5.60;;
42988;SDS011;28622;43.716;20.668;2022-10-30T08:25:15;10.00;;;5.43;;
42988;SDS011;28622;43.716;20.668;2022-10-30T08:27:49;8.50;;;4.38;;
42988;SDS011;28622;43.716;20.668;2022-10-30T08:30:15;6.13;;;3.90;;
42988;SDS011;28622;43.716;20.668;2022-10-30T08:32:41;9.05;;;4.00;;
42988;SDS011;28622;43.716;20.668;2022-10-30T08:35:07;11.55;;;5.60;;
42988;SDS011;28622;43.716;20.668;2022-10-30T08:37:33;7.25;;;4.28;;
42988;SDS011;28622;43.716;20.668;2022-10-30T08:39:59;6.82;;;4.00;;
42988;SDS011;28622;43.716;20.668;2022-10-30T08:42:25;9.02;;;4.30;;
42988;SDS011;28622;43.716;20.668;2022-10-30T08:44:50;10.90;;;5.40;;
42988;SDS011;28622;43.716;20.668;2022-10-30T08:47:17;18.70;;;10.20;;
42988;SDS011;28622;43.716;20.668;2022-10-30T08:49:43;16.85;;;6.88;;
42988;SDS011;28622;43.716;20.668;2022-10-30T08:52:09;9.65;;;4.10;;
42988;SDS011;28622;43.716;20.668;2022-10-30T08:54:35;14.35;;;6.15;;
42988;SDS011;28622;43.716;20.668;2022-10-30T08:57:01;10.13;;;5.45;;
42988;SDS011;28622;43.716;20.668;2022-10-30T08:59:26;9.45;;;5.32;;
42988;SDS011;28622;43.716;20.668;2022-10-30T09:01:52;53.35;;;25.98;;
42988;SDS011;28622;43.716;20.668;2022-10-30T09:04:18;21.35;;;7.78;;
42988;SDS011;28622;43.716;20.668;2022-10-30T09:06:44;11.82;;;5.93;;
42988;SDS011;28622;43.716;20.668;2022-10-30T09:09:09;21.33;;;10.13;;
42988;SDS011;28622;43.716;20.668;2022-10-30T09:11:36;24.67;;;13.25;;
42988;SDS011;28622;43.716;20.668;2022-10-30T09:14:01;12.63;;;6.70;;
42988;SDS011;28622;43.716;20.668;2022-10-30T09:16:27;7.47;;;5.30;;
42988;SDS011;28622;43.716;20.668;2022-10-30T09:18:53;14.25;;;5.20;;
42988;SDS011;28622;43.716;20.668;2022-10-30T09:21:19;6.97;;;4.05;;
42988;SDS011;28622;43.716;20.668;2022-10-30T09:23:44;10.60;;;4.30;;
42988;SDS011;28622;43.716;20.668;2022-10-30T09:26:10;8.85;;;4.57;;
42988;SDS011;28622;43.716;20.668;2022-10-30T09:28:36;7.45;;;4.40;;
42988;SDS011;28622;43.716;20.668;2022-10-30T09:31:02;9.85;;;5.13;;
42988;SDS011;28622;43.716;20.668;2022-10-30T09:33:28;8.50;;;4.35;;
42988;SDS011;28622;43.716;20.668;2022-10-30T09:35:54;7.22;;;4.45;;
42988;SDS011;28622;43.716;20.668;2022-10-30T09:38:20;7.60;;;3.92;;
42988;SDS011;28622;43.716;20.668;2022-10-30T09:46:11;9.35;;;3.90;;
42988;SDS011;28622;43.716;20.668;2022-10-30T10:05:41;6.10;;;3.63;;
42988;SDS011;28622;43.716;20.668;2022-10-30T10:08:36;13.18;;;4.32;;
42988;SDS011;28622;43.716;20.668;2022-10-30T10:11:10;8.43;;;3.05;;
42988;SDS011;28622;43.716;20.668;2022-10-30T10:13:42;6.05;;;3.35;;
42988;SDS011;28622;43.716;20.668;2022-10-30T10:16:33;7.07;;;4.03;;
42988;SDS011;28622;43.716;20.668;2022-10-30T10:22:06;8.23;;;4.13;;
42988;SDS011;28622;43.716;20.668;2022-10-30T10:24:50;6.20;;;3.33;;
42988;SDS011;28622;43.716;20.668;2022-10-30T10:35:34;9.40;;;3.00;;
42988;SDS011;28622;43.716;20.668;2022-10-30T10:41:07;6.93;;;3.22;;
42988;SDS011;28622;43.716;20.668;2022-10-30T10:52:07;5.57;;;3.30;;
42988;SDS011;28622;43.716;20.668;2022-10-30T10:54:44;7.15;;;4.78;;
42988;SDS011;28622;43.716;20.668;2022-10-30T10:57:31;10.90;;;4.47;;
42988;SDS011;28622;43.716;20.668;2022-10-30T11:00:14;9.02;;;5.05;;
42988;SDS011;28622;43.716;20.668;2022-10-30T11:08:28;8.32;;;4.10;;
42988;SDS011;28622;43.716;20.668;2022-10-30T11:11:01;7.00;;;4.03;;
42988;SDS011;28622;43.716;20.668;2022-10-30T11:13:33;9.00;;;4.53;;
42988;SDS011;28622;43.716;20.668;2022-10-30T11:18:32;6.55;;;3.42;;
42988;SDS011;28622;43.716;20.668;2022-10-30T11:21:03;6.70;;;2.92;;
42988;SDS011;28622;43.716;20.668;2022-10-30T11:23:46;6.93;;;3.47;;
42988;SDS011;28622;43.716;20.668;2022-10-30T11:32:03;6.07;;;3.97;;
42988;SDS011;28622;43.716;20.668;2022-10-30T11:34:33;10.40;;;4.53;;
42988;SDS011;28622;43.716;20.668;2022-10-30T11:37:00;8.50;;;4.18;;
42988;SDS011;28622;43.716;20.668;2022-10-30T11:39:28;8.57;;;4.32;;
42988;SDS011;28622;43.716;20.668;2022-10-30T11:42:14;8.50;;;4.05;;
42988;SDS011;28622;43.716;20.668;2022-10-30T11:44:43;11.88;;;3.60;;
42988;SDS011;28622;43.716;20.668;2022-10-30T11:47:10;6.18;;;3.53;;
42988;SDS011;28622;43.716;20.668;2022-10-30T11:52:16;11.85;;;4.68;;
42988;SDS011;28622;43.716;20.668;2022-10-30T11:54:49;9.90;;;3.72;;
42988;SDS011;28622;43.716;20.668;2022-10-30T12:00:13;9.23;;;3.95;;
42988;SDS011;28622;43.716;20.668;2022-10-30T12:02:40;13.68;;;3.83;;
42988;SDS011;28622;43.716;20.668;2022-10-30T12:11:18;6.97;;;3.03;;
42988;SDS011;28622;43.716;20.668;2022-10-30T12:13:26;3.33;;;2.53;;
42988;SDS011;28622;43.716;20.668;2022-10-30T12:16:14;6.82;;;3.78;;
42988;SDS011;28622;43.716;20.668;2022-10-30T12:18:49;7.28;;;3.30;;
42988;SDS011;28622;43.716;20.668;2022-10-30T12:21:38;5.40;;;2.85;;
42988;SDS011;28622;43.716;20.668;2022-10-30T12:24:12;7.00;;;4.05;;
42988;SDS011;28622;43.716;20.668;2022-10-30T12:26:46;6.00;;;3.22;;
42988;SDS011;28622;43.716;20.668;2022-10-30T12:29:15;8.52;;;4.10;;
42988;SDS011;28622;43.716;20.668;2022-10-30T12:31:57;9.75;;;4.80;;
42988;SDS011;28622;43.716;20.668;2022-10-30T12:34:42;6.75;;;3.45;;
42988;SDS011;28622;43.716;20.668;2022-10-30T12:43:23;6.40;;;3.65;;
42988;SDS011;28622;43.716;20.668;2022-10-30T12:45:44;7.60;;;4.30;;
42988;SDS011;28622;43.716;20.668;2022-10-30T12:48:14;6.63;;;3.42;;
42988;SDS011;28622;43.716;20.668;2022-10-30T12:56:44;9.60;;;2.95;;
42988;SDS011;28622;43.716;20.668;2022-10-30T13:04:34;32.97;;;12.02;;
42988;SDS011;28622;43.716;20.668;2022-10-30T13:12:39;6.13;;;2.60;;
42988;SDS011;28622;43.716;20.668;2022-10-30T13:15:09;11.48;;;2.95;;
42988;SDS011;28622;43.716;20.668;2022-10-30T13:18:05;7.20;;;3.40;;
42988;SDS011;28622;43.716;20.668;2022-10-30T13:23:47;5.82;;;2.67;;
42988;SDS011;28622;43.716;20.668;2022-10-30T13:37:04;8.95;;;3.03;;
42988;SDS011;28622;43.716;20.668;2022-10-30T13:45:56;5.00;;;2.60;;
42988;SDS011;28622;43.716;20.668;2022-10-30T13:53:16;6.07;;;2.83;;
42988;SDS011;28622;43.716;20.668;2022-10-30T13:55:46;7.57;;;3.13;;
42988;SDS011;28622;43.716;20.668;2022-10-30T14:03:36;10.27;;;4.25;;
42988;SDS011;28622;43.716;20.668;2022-10-30T14:11:55;6.80;;;3.47;;
42988;SDS011;28622;43.716;20.668;2022-10-30T14:14:44;13.30;;;4.93;;
42988;SDS011;28622;43.716;20.668;2022-10-30T14:17:13;11.50;;;4.10;;
42988;SDS011;28622;43.716;20.668;2022-10-30T14:22:31;11.13;;;5.38;;
42988;SDS011;28622;43.716;20.668;2022-10-30T14:25:00;11.52;;;5.43;;
42988;SDS011;28622;43.716;20.668;2022-10-30T14:27:30;11.45;;;5.03;;
42988;SDS011;28622;43.716;20.668;2022-10-30T14:29:57;12.52;;;4.40;;
42988;SDS011;28622;43.716;20.668;2022-10-30T14:39:48;8.95;;;3.72;;
42988;SDS011;28622;43.716;20.668;2022-10-30T14:42:25;6.40;;;3.17;;
42988;SDS011;28622;43.716;20.668;2022-10-30T14:45:16;7.35;;;3.42;;
42988;SDS011;28622;43.716;20.668;2022-10-30T14:50:19;6.22;;;3.63;;
42988;SDS011;28622;43.716;20.668;2022-10-30T14:57:53;12.13;;;6.13;;
42988;SDS011;28622;43.716;20.668;2022-10-30T15:00:41;9.68;;;4.50;;
42988;SDS011;28622;43.716;20.668;2022-10-30T15:03:17;11.15;;;4.70;;
42988;SDS011;28622;43.716;20.668;2022-10-30T15:06:28;70.38;;;34.92;;
42988;SDS011;28622;43.716;20.668;2022-10-30T15:14:35;17.98;;;8.75;;
42988;SDS011;28622;43.716;20.668;2022-10-30T15:17:12;11.45;;;6.15;;
42988;SDS011;28622;43.716;20.668;2022-10-30T15:19:45;16.13;;;9.38;;
42988;SDS011;28622;43.716;20.668;2022-10-30T15:22:14;20.42;;;10.55;;
42988;SDS011;28622;43.716;20.668;2022-10-30T15:27:10;18.45;;;8.50;;
42988;SDS011;28622;43.716;20.668;2022-10-30T15:29:45;25.85;;;10.63;;
42988;SDS011;28622;43.716;20.668;2022-10-30T15:32:19;29.30;;;10.52;;
42988;SDS011;28622;43.716;20.668;2022-10-30T15:34:57;36.88;;;11.20;;
42988;SDS011;28622;43.716;20.668;2022-10-30T15:37:25;30.33;;;12.77;;
42988;SDS011;28622;43.716;20.668;2022-10-30T15:40:24;38.95;;;13.15;;
42988;SDS011;28622;43.716;20.668;2022-10-30T15:42:45;27.80;;;11.45;;
42988;SDS011;28622;43.716;20.668;2022-10-30T15:45:17;35.50;;;11.32;;
42988;SDS011;28622;43.716;20.668;2022-10-30T15:50:32;25.17;;;12.10;;
42988;SDS011;28622;43.716;20.668;2022-10-30T15:52:58;21.80;;;10.20;;
42988;SDS011;28622;43.716;20.668;2022-10-30T15:55:26;27.98;;;12.85;;
42988;SDS011;28622;43.716;20.668;2022-10-30T15:57:54;27.33;;;11.73;;
42988;SDS011;28622;43.716;20.668;2022-10-30T16:00:24;24.27;;;12.63;;
42988;SDS011;28622;43.716;20.668;2022-10-30T16:02:58;20.70;;;10.60;;
42988;SDS011;28622;43.716;20.668;2022-10-30T16:05:25;19.02;;;10.63;;
42988;SDS011;28622;43.716;20.668;2022-10-30T16:07:54;28.75;;;14.00;;
42988;SDS011;28622;43.716;20.668;2022-10-30T16:10:21;44.90;;;20.45;;
42988;SDS011;28622;43.716;20.668;2022-10-30T16:12:49;40.65;;;20.38;;
42988;SDS011;28622;43.716;20.668;2022-10-30T16:15:24;57.75;;;25.30;;
42988;SDS011;28622;43.716;20.668;2022-10-30T16:20:48;58.00;;;25.00;;
42988;SDS011;28622;43.716;20.668;2022-10-30T16:23:16;63.10;;;27.13;;
42988;SDS011;28622;43.716;20.668;2022-10-30T16:25:44;73.95;;;30.48;;
42988;SDS011;28622;43.716;20.668;2022-10-30T16:28:30;64.78;;;27.80;;
42988;SDS011;28622;43.716;20.668;2022-10-30T16:31:05;56.67;;;26.95;;
42988;SDS011;28622;43.716;20.668;2022-10-30T16:33:38;61.38;;;28.45;;
42988;SDS011;28622;43.716;20.668;2022-10-30T16:36:07;64.95;;;29.10;;
42988;SDS011;28622;43.716;20.668;2022-10-30T16:38:36;59.90;;;25.83;;
42988;SDS011;28622;43.716;20.668;2022-10-30T16:41:06;53.13;;;23.65;;
42988;SDS011;28622;43.716;20.668;2022-10-30T16:43:37;72.28;;;30.80;;
42988;SDS011;28622;43.716;20.668;2022-10-30T16:48:55;53.22;;;24.45;;
42988;SDS011;28622;43.716;20.668;2022-10-30T16:51:24;52.83;;;23.40;;
42988;SDS011;28622;43.716;20.668;2022-10-30T16:53:50;48.40;;;21.65;;
42988;SDS011;28622;43.716;20.668;2022-10-30T16:56:21;55.17;;;25.70;;
42988;SDS011;28622;43.716;20.668;2022-10-30T16:58:53;53.60;;;21.45;;
42988;SDS011;28622;43.716;20.668;2022-10-30T17:01:26;52.90;;;20.92;;
42988;SDS011;28622;43.716;20.668;2022-10-30T17:03:52;47.15;;;21.00;;
42988;SDS011;28622;43.716;20.668;2022-10-30T17:06:27;49.70;;;20.00;;
42988;SDS011;28622;43.716;20.668;2022-10-30T17:08:58;47.33;;;20.17;;
42988;SDS011;28622;43.716;20.668;2022-10-30T17:14:02;60.05;;;22.95;;
42988;SDS011;28622;43.716;20.668;2022-10-30T17:16:40;53.42;;;22.67;;
42988;SDS011;28622;43.716;20.668;2022-10-30T17:21:54;58.47;;;23.45;;
42988;SDS011;28622;43.716;20.668;2022-10-30T17:24:27;60.50;;;22.83;;
42988;SDS011;28622;43.716;20.668;2022-10-30T17:27:02;56.75;;;23.35;;
42988;SDS011;28622;43.716;20.668;2022-10-30T17:32:04;44.65;;;19.13;;
42988;SDS011;28622;43.716;20.668;2022-10-30T17:34:40;52.95;;;20.13;;
42988;SDS011;28622;43.716;20.668;2022-10-30T17:37:05;52.20;;;20.55;;
42988;SDS011;28622;43.716;20.668;2022-10-30T17:39:31;50.85;;;22.35;;
42988;SDS011;28622;43.716;20.668;2022-10-30T17:41:57;58.33;;;23.02;;
42988;SDS011;28622;43.716;20.668;2022-10-30T17:44:23;75.93;;;32.08;;
42988;SDS011;28622;43.716;20.668;2022-10-30T17:46:50;74.95;;;29.15;;
42988;SDS011;28622;43.716;20.668;2022-10-30T17:49:26;61.78;;;25.73;;
42988;SDS011;28622;43.716;20.668;2022-10-30T17:51:53;57.30;;;23.77;;
42988;SDS011;28622;43.716;20.668;2022-10-30T17:54:19;44.35;;;20.33;;
42988;SDS011;28622;43.716;20.668;2022-10-30T17:56:45;42.80;;;19.95;;
42988;SDS011;28622;43.716;20.668;2022-10-30T17:59:11;59.35;;;24.63;;